Prospect Creek, Prospect Cree, AK

9:51 PM AKDT on March 29, 2015 (GMT -0800)
APRSWXNET Jim River DOT AK US | | Change Station
CLOSE
Current Station
Personal Weather Station
Location: Bettles Field, AK
Elevation: 852 ft
Nearby Weather Stations

Elev 852 ft 66.82 °N, 150.66 °W | Updated 34 minutes ago

Partly Cloudy
Partly Cloudy
33 °F
Feels Like 26 °F
N
9
Wind Variable Wind from ESE
Gusts 0.0 mph

Today
High -- | Low -- °F
--% Chance of Precip.
Yesterday
High -- | Low -- °F
Precip. -- in
7:26 AM 8:49 PM
Waxing Gibbous, 77% visible
Pressure 29.57 in
Visibility 10.0 miles
Clouds Few 5000 ft
Windchill 26 °F
Dew Point 19 °F
Humidity 57%
Rainfall in
Snow Depth Not available.
UV 0 out of 12
Pollen Not available.
Air Quality Not available.
Flu Activity Not available.
METAR PABT 300453Z 32005KT 10SM FEW050 M03/M10 A2951 RMK AO2 SLP011 T10281100 PNO

More Conditions Fewer Conditions

Pressure 29.57 in
Visibility 10.0 miles
Clouds Few 5000 ft
Windchill 26 °F
Dew Point 19 °F
Humidity 57%
Rainfall in
Snow Depth Not available.
UV 0 out of 12
Pollen Not available.
Air Quality Not available.
Flu Activity Not available.
METAR PABT 300453Z 32005KT 10SM FEW050 M03/M10 A2951 RMK AO2 SLP011 T10281100 PNO

More Conditions Fewer Conditions

10-Day Weather Forecast

Almanac

Astronomy

Mar. 29, 2015 Rise Set
Actual Time
Civil Twilight
Nautical Twilight
Astronomical Twilight
Moon
Length of Visible Light
Length of Day
Tomorrow will be .
, % of the Moon is Illuminated

Today's Extremes

State Highs State Lows

Community

WunderPhotos

Upload Photos

1,809,437 photos uploaded!

WunderBlogs® & News

Nearby

Air Quality

  Air Quality AQ Index Pollutant
Not available.

Snow Depth

Station Depth Elevation

Earthquake Activity

City Distance Mag. Time & Date
Minimum magnitude displayed is 2.5.

Coastal Water Temperatures

Place Temperature

Stations

Nearby Weather Stations

Station Location Temp. Windchill Dew Point Humidity Wind Precip. Elev Updated Type